San Clemente, CA (92672)

3:05 AM PST on January 26, 2015 (GMT -0800)
North Ola Vista | Change Station
CLOSE
Current Station
Personal Weather Station
Location: San Clemente, CA
Elevation: 200 ft
Nearby Weather Stations

Elev 200 ft 33.43 °N, 117.62 °W | Updated 5 seconds ago

Clear
Clear
72.1 °F
Feels Like 73 °F
N
0.9
Wind Variable Wind from SSE
Gusts 2.5 mph

Today
High -- | Low -- °F
--% Chance of Precip.
Yesterday
High -- | Low -- °F
Precip. -- in
6:50 AM 5:16 PM
Waxing Crescent, 42% visible
Pressure 30.22 in
Visibility 10.0 miles
Clouds Clear
Heat Index 73 °F
Dew Point 17 °F
Humidity 12%
Rainfall 0.00 in
Snow Depth Not available.
UV 0 out of 12
Pollen 6.70 out of 12
Air Quality Not available.
Flu Activity Not available.
METAR KNXF 261056Z AUTO 05006KT 10SM CLR 19/00 A2997 RMK AO2 SLP234 T01940000 PNO $

More Conditions Fewer Conditions

Pressure 30.22 in
Visibility 10.0 miles
Clouds Clear
Heat Index 73 °F
Dew Point 17 °F
Humidity 12%
Rainfall 0.00 in
Snow Depth Not available.
UV 0 out of 12
Pollen 6.70 out of 12
Air Quality Not available.
Flu Activity Not available.
METAR KNXF 261056Z AUTO 05006KT 10SM CLR 19/00 A2997 RMK AO2 SLP234 T01940000 PNO $

More Conditions Fewer Conditions

10-Day Weather Forecast

Almanac

Astronomy

Jan. 26, 2015 Rise Set
Actual Time
Civil Twilight
Nautical Twilight
Astronomical Twilight
Moon
Length of Visible Light
Length of Day
Tomorrow will be .
, % of the Moon is Illuminated

Today's Extremes

State Highs State Lows

Community

WunderPhotos

Upload Photos

1,790,172 photos uploaded!

WunderBlogs® & News

Nearby

Air Quality

  Air Quality AQ Index Pollutant
Not available.

Snow Depth

Station Depth Elevation

Earthquake Activity

City Distance Mag. Time & Date
Minimum magnitude displayed is 2.5.

Coastal Water Temperatures

Place Temperature

Nearby Weather Stations